Hlavní strana
METAR-TAF:

METAR-TAF

Letiště :

Mezinárodní letiště Male

Male, Maledivy

zeměpisná šířka: 04-12N, zeměpisná délka: 073-32E, výška: 2 m

Aktuální stav počasí

Zpráva byla vytvořena před 28 minutami, v 22:00 UTC
Severní vítr 8 kt
Teplota 28°C
Vlhkost vzduchu 74%
Tlak 1011 hPa
Viditelnost: 9000 m
Skoro jasno ve výšce 1800 ft
Oblačno až skoro zataženo ve výšce 27000 ft

METAR: VRMM 132200Z 01008KT 9000 FEW018 BKN270 28/23 Q1011 NOSIG

Čas: 03:28 (22:28 UTC)

Předpověď počasí

Zpráva byla vytvořena před 5 hodinami a 28 minutami, v 17:00 UTC
Předpověď platná od 13 v 18 UTC do 14 v 24 UTC
Severní vítr 6 kt
Viditelnost: 6000 m
Skoro jasno ve výšce 1800 ft
Dočasný
od 13 v 18 UTC do 13 v 24 UTC
Skoro jasno ve výšce 1900 ft, Cumulonimbus.

TAF: VRMM 131700Z 1318/1424 35006KT 6000 FEW018 TEMPO 1318/1324 FEW019CB

Stav a předpovědi počasí z více než 4 000 letišť (zprávy METAR a TAF).

Červené a žluté tečky na mapě představují dostupné meteorologické stanice.

Když kurzor umístíte na tečku, zobrazí se název stanice.

Pak kliknutím zobrazíte stav a předpověď počasí.

Chcete-li změnit mapu, kliknutím na zelené tlačítko se znaménkem +mapu přiblížíte, kliknutím na zelené tlačítko se znaménkem – mapu oddálíte a kliknutím na zelené šipky přejdete na sousední mapy.


METAR-TAF: